sensor_id;sensor_type;location;lat;lon;timestamp;P1;durP1;ratioP1;P2;durP2;ratioP2
30647;SDS011;17683;53.360;9.736;2023-08-06T00:02:23;2.35;;;1.80;;
30647;SDS011;17683;53.360;9.736;2023-08-06T00:04:48;1.85;;;1.70;;
30647;SDS011;17683;53.360;9.736;2023-08-06T00:07:14;3.25;;;2.35;;
30647;SDS011;17683;53.360;9.736;2023-08-06T00:09:40;3.05;;;1.80;;
30647;SDS011;17683;53.360;9.736;2023-08-06T00:12:05;2.10;;;1.83;;
30647;SDS011;17683;53.360;9.736;2023-08-06T00:14:31;3.15;;;1.90;;
30647;SDS011;17683;53.360;9.736;2023-08-06T00:16:57;4.00;;;1.92;;
30647;SDS011;17683;53.360;9.736;2023-08-06T00:19:23;2.42;;;2.00;;
30647;SDS011;17683;53.360;9.736;2023-08-06T00:21:49;4.25;;;1.88;;
30647;SDS011;17683;53.360;9.736;2023-08-06T00:24:14;9.68;;;2.08;;
30647;SDS011;17683;53.360;9.736;2023-08-06T00:26:40;2.08;;;1.88;;
30647;SDS011;17683;53.360;9.736;2023-08-06T00:29:05;2.55;;;1.50;;
30647;SDS011;17683;53.360;9.736;2023-08-06T00:31:31;4.10;;;2.20;;
30647;SDS011;17683;53.360;9.736;2023-08-06T00:33:57;3.35;;;2.05;;
30647;SDS011;17683;53.360;9.736;2023-08-06T00:36:22;2.42;;;1.98;;
30647;SDS011;17683;53.360;9.736;2023-08-06T00:38:48;3.80;;;2.35;;
30647;SDS011;17683;53.360;9.736;2023-08-06T00:41:14;2.63;;;2.17;;
30647;SDS011;17683;53.360;9.736;2023-08-06T00:43:39;3.45;;;2.10;;
30647;SDS011;17683;53.360;9.736;2023-08-06T00:46:05;3.85;;;2.33;;
30647;SDS011;17683;53.360;9.736;2023-08-06T00:48:31;2.28;;;1.90;;
30647;SDS011;17683;53.360;9.736;2023-08-06T00:50:57;2.40;;;2.20;;
30647;SDS011;17683;53.360;9.736;2023-08-06T00:53:23;3.08;;;2.35;;
30647;SDS011;17683;53.360;9.736;2023-08-06T00:55:49;1.90;;;1.73;;
30647;SDS011;17683;53.360;9.736;2023-08-06T00:58:16;2.58;;;1.90;;
30647;SDS011;17683;53.360;9.736;2023-08-06T01:00:42;5.05;;;1.85;;
30647;SDS011;17683;53.360;9.736;2023-08-06T01:03:08;3.08;;;2.13;;
30647;SDS011;17683;53.360;9.736;2023-08-06T01:05:33;2.75;;;1.88;;
30647;SDS011;17683;53.360;9.736;2023-08-06T01:13:16;2.28;;;1.83;;
30647;SDS011;17683;53.360;9.736;2023-08-06T01:16:06;2.97;;;2.42;;
30647;SDS011;17683;53.360;9.736;2023-08-06T01:18:33;3.22;;;1.90;;
30647;SDS011;17683;53.360;9.736;2023-08-06T01:20:59;2.40;;;2.10;;
30647;SDS011;17683;53.360;9.736;2023-08-06T01:23:25;3.90;;;2.42;;
30647;SDS011;17683;53.360;9.736;2023-08-06T01:25:56;4.15;;;2.47;;
30647;SDS011;17683;53.360;9.736;2023-08-06T01:31:15;2.85;;;2.55;;
30647;SDS011;17683;53.360;9.736;2023-08-06T01:33:51;4.03;;;2.90;;
30647;SDS011;17683;53.360;9.736;2023-08-06T01:36:19;3.65;;;2.55;;
30647;SDS011;17683;53.360;9.736;2023-08-06T01:38:45;3.75;;;2.40;;
30647;SDS011;17683;53.360;9.736;2023-08-06T01:41:11;5.53;;;2.65;;
30647;SDS011;17683;53.360;9.736;2023-08-06T01:43:37;5.22;;;3.00;;
30647;SDS011;17683;53.360;9.736;2023-08-06T01:46:03;3.03;;;2.50;;
30647;SDS011;17683;53.360;9.736;2023-08-06T01:48:28;3.60;;;2.97;;
30647;SDS011;17683;53.360;9.736;2023-08-06T01:50:54;5.28;;;3.10;;
30647;SDS011;17683;53.360;9.736;2023-08-06T01:53:20;5.15;;;2.33;;
30647;SDS011;17683;53.360;9.736;2023-08-06T01:55:48;3.75;;;2.88;;
30647;SDS011;17683;53.360;9.736;2023-08-06T01:58:14;4.93;;;2.92;;
30647;SDS011;17683;53.360;9.736;2023-08-06T02:00:40;7.30;;;3.83;;
30647;SDS011;17683;53.360;9.736;2023-08-06T02:03:06;3.10;;;2.60;;
30647;SDS011;17683;53.360;9.736;2023-08-06T02:05:31;5.10;;;2.72;;
30647;SDS011;17683;53.360;9.736;2023-08-06T02:07:57;5.47;;;3.08;;
30647;SDS011;17683;53.360;9.736;2023-08-06T02:10:23;3.70;;;2.83;;
30647;SDS011;17683;53.360;9.736;2023-08-06T02:12:48;5.20;;;2.80;;
30647;SDS011;17683;53.360;9.736;2023-08-06T02:15:14;3.20;;;2.72;;
30647;SDS011;17683;53.360;9.736;2023-08-06T02:17:40;3.28;;;2.92;;
30647;SDS011;17683;53.360;9.736;2023-08-06T02:20:06;5.65;;;3.13;;
30647;SDS011;17683;53.360;9.736;2023-08-06T02:22:32;4.80;;;3.40;;
30647;SDS011;17683;53.360;9.736;2023-08-06T02:24:58;4.38;;;3.25;;
30647;SDS011;17683;53.360;9.736;2023-08-06T02:27:24;4.47;;;3.20;;
30647;SDS011;17683;53.360;9.736;2023-08-06T02:29:50;3.83;;;3.38;;
30647;SDS011;17683;53.360;9.736;2023-08-06T02:32:16;4.40;;;3.45;;
30647;SDS011;17683;53.360;9.736;2023-08-06T02:34:41;7.22;;;3.45;;
30647;SDS011;17683;53.360;9.736;2023-08-06T02:37:07;5.30;;;3.42;;
30647;SDS011;17683;53.360;9.736;2023-08-06T02:39:33;3.45;;;3.10;;
30647;SDS011;17683;53.360;9.736;2023-08-06T02:42:00;3.60;;;3.13;;
30647;SDS011;17683;53.360;9.736;2023-08-06T02:44:27;6.75;;;3.40;;
30647;SDS011;17683;53.360;9.736;2023-08-06T02:46:53;7.20;;;4.10;;
30647;SDS011;17683;53.360;9.736;2023-08-06T02:49:19;6.57;;;3.55;;
30647;SDS011;17683;53.360;9.736;2023-08-06T02:51:44;3.67;;;2.70;;
30647;SDS011;17683;53.360;9.736;2023-08-06T02:54:10;6.20;;;3.70;;
30647;SDS011;17683;53.360;9.736;2023-08-06T02:56:36;6.78;;;3.85;;
30647;SDS011;17683;53.360;9.736;2023-08-06T02:59:02;4.00;;;3.63;;
30647;SDS011;17683;53.360;9.736;2023-08-06T03:01:28;3.70;;;3.40;;
30647;SDS011;17683;53.360;9.736;2023-08-06T03:03:54;4.50;;;3.10;;
30647;SDS011;17683;53.360;9.736;2023-08-06T03:06:20;5.05;;;3.45;;
30647;SDS011;17683;53.360;9.736;2023-08-06T03:08:45;5.55;;;3.95;;
30647;SDS011;17683;53.360;9.736;2023-08-06T03:11:11;5.93;;;4.28;;
30647;SDS011;17683;53.360;9.736;2023-08-06T03:13:37;6.47;;;3.55;;
30647;SDS011;17683;53.360;9.736;2023-08-06T03:16:02;3.85;;;3.35;;
30647;SDS011;17683;53.360;9.736;2023-08-06T03:18:28;3.88;;;3.40;;
30647;SDS011;17683;53.360;9.736;2023-08-06T03:20:54;3.97;;;3.58;;
30647;SDS011;17683;53.360;9.736;2023-08-06T03:23:20;4.40;;;3.47;;
30647;SDS011;17683;53.360;9.736;2023-08-06T03:25:45;5.18;;;3.75;;
30647;SDS011;17683;53.360;9.736;2023-08-06T03:28:11;4.38;;;3.10;;
30647;SDS011;17683;53.360;9.736;2023-08-06T03:30:37;4.53;;;3.53;;
30647;SDS011;17683;53.360;9.736;2023-08-06T03:33:03;4.00;;;3.28;;
30647;SDS011;17683;53.360;9.736;2023-08-06T03:35:29;5.43;;;3.33;;
30647;SDS011;17683;53.360;9.736;2023-08-06T03:37:55;8.80;;;3.83;;
30647;SDS011;17683;53.360;9.736;2023-08-06T03:40:20;4.50;;;4.00;;
30647;SDS011;17683;53.360;9.736;2023-08-06T03:42:46;6.97;;;4.00;;
30647;SDS011;17683;53.360;9.736;2023-08-06T03:45:12;9.05;;;3.67;;
30647;SDS011;17683;53.360;9.736;2023-08-06T03:47:38;4.10;;;3.65;;
30647;SDS011;17683;53.360;9.736;2023-08-06T03:50:03;6.82;;;4.57;;
30647;SDS011;17683;53.360;9.736;2023-08-06T03:52:29;4.47;;;3.53;;
30647;SDS011;17683;53.360;9.736;2023-08-06T03:54:55;7.82;;;4.22;;
30647;SDS011;17683;53.360;9.736;2023-08-06T03:57:21;4.95;;;3.80;;
30647;SDS011;17683;53.360;9.736;2023-08-06T03:59:46;4.78;;;4.25;;
30647;SDS011;17683;53.360;9.736;2023-08-06T04:02:12;5.57;;;3.47;;
30647;SDS011;17683;53.360;9.736;2023-08-06T04:04:38;5.50;;;3.80;;
30647;SDS011;17683;53.360;9.736;2023-08-06T04:07:03;3.90;;;3.50;;
30647;SDS011;17683;53.360;9.736;2023-08-06T04:09:29;4.80;;;3.95;;
30647;SDS011;17683;53.360;9.736;2023-08-06T04:11:55;8.85;;;4.22;;
30647;SDS011;17683;53.360;9.736;2023-08-06T04:14:21;4.43;;;4.03;;
30647;SDS011;17683;53.360;9.736;2023-08-06T04:16:47;5.68;;;4.18;;
30647;SDS011;17683;53.360;9.736;2023-08-06T04:19:12;5.38;;;3.88;;
30647;SDS011;17683;53.360;9.736;2023-08-06T04:21:38;6.40;;;4.35;;
30647;SDS011;17683;53.360;9.736;2023-08-06T04:24:04;4.50;;;3.60;;
30647;SDS011;17683;53.360;9.736;2023-08-06T04:26:29;7.57;;;4.25;;
30647;SDS011;17683;53.360;9.736;2023-08-06T04:28:55;4.60;;;3.88;;
30647;SDS011;17683;53.360;9.736;2023-08-06T04:31:21;7.68;;;3.75;;
30647;SDS011;17683;53.360;9.736;2023-08-06T04:33:48;4.28;;;3.45;;
30647;SDS011;17683;53.360;9.736;2023-08-06T04:36:13;7.32;;;4.95;;
30647;SDS011;17683;53.360;9.736;2023-08-06T04:38:39;4.15;;;3.58;;
30647;SDS011;17683;53.360;9.736;2023-08-06T04:41:09;10.82;;;4.43;;
30647;SDS011;17683;53.360;9.736;2023-08-06T04:43:35;8.32;;;4.82;;
30647;SDS011;17683;53.360;9.736;2023-08-06T04:46:01;4.97;;;4.15;;
30647;SDS011;17683;53.360;9.736;2023-08-06T04:48:27;4.15;;;3.53;;
30647;SDS011;17683;53.360;9.736;2023-08-06T04:50:52;6.40;;;4.50;;
30647;SDS011;17683;53.360;9.736;2023-08-06T04:53:19;4.65;;;4.05;;
30647;SDS011;17683;53.360;9.736;2023-08-06T04:55:45;6.60;;;3.58;;
30647;SDS011;17683;53.360;9.736;2023-08-06T04:58:11;13.68;;;4.55;;
30647;SDS011;17683;53.360;9.736;2023-08-06T05:00:38;5.55;;;3.67;;
30647;SDS011;17683;53.360;9.736;2023-08-06T05:03:04;5.80;;;3.92;;
30647;SDS011;17683;53.360;9.736;2023-08-06T05:05:30;4.63;;;4.00;;
30647;SDS011;17683;53.360;9.736;2023-08-06T05:07:56;6.60;;;4.10;;
30647;SDS011;17683;53.360;9.736;2023-08-06T05:10:24;13.77;;;5.63;;
30647;SDS011;17683;53.360;9.736;2023-08-06T05:12:50;4.25;;;3.83;;
30647;SDS011;17683;53.360;9.736;2023-08-06T05:15:16;8.00;;;4.50;;
30647;SDS011;17683;53.360;9.736;2023-08-06T05:17:42;6.47;;;4.22;;
30647;SDS011;17683;53.360;9.736;2023-08-06T05:20:08;7.78;;;4.05;;
30647;SDS011;17683;53.360;9.736;2023-08-06T05:22:34;8.90;;;3.70;;
30647;SDS011;17683;53.360;9.736;2023-08-06T05:24:59;8.23;;;4.55;;
30647;SDS011;17683;53.360;9.736;2023-08-06T05:27:25;5.72;;;3.72;;
30647;SDS011;17683;53.360;9.736;2023-08-06T05:29:54;6.60;;;4.03;;
30647;SDS011;17683;53.360;9.736;2023-08-06T05:32:21;6.05;;;4.35;;
30647;SDS011;17683;53.360;9.736;2023-08-06T05:34:47;8.50;;;4.25;;
30647;SDS011;17683;53.360;9.736;2023-08-06T05:37:12;5.35;;;3.53;;
30647;SDS011;17683;53.360;9.736;2023-08-06T05:39:38;8.23;;;5.00;;
30647;SDS011;17683;53.360;9.736;2023-08-06T05:42:04;4.43;;;4.03;;
30647;SDS011;17683;53.360;9.736;2023-08-06T05:44:30;7.53;;;4.13;;
30647;SDS011;17683;53.360;9.736;2023-08-06T05:46:56;9.30;;;3.85;;
30647;SDS011;17683;53.360;9.736;2023-08-06T05:49:21;7.35;;;4.18;;
30647;SDS011;17683;53.360;9.736;2023-08-06T05:51:47;7.65;;;4.05;;
30647;SDS011;17683;53.360;9.736;2023-08-06T05:54:13;8.60;;;4.60;;
30647;SDS011;17683;53.360;9.736;2023-08-06T05:56:39;5.47;;;4.03;;
30647;SDS011;17683;53.360;9.736;2023-08-06T05:59:05;5.57;;;4.30;;
30647;SDS011;17683;53.360;9.736;2023-08-06T06:01:30;5.25;;;3.88;;
30647;SDS011;17683;53.360;9.736;2023-08-06T06:03:56;5.63;;;4.82;;
30647;SDS011;17683;53.360;9.736;2023-08-06T06:06:22;8.15;;;4.70;;
30647;SDS011;17683;53.360;9.736;2023-08-06T06:08:47;7.75;;;5.20;;
30647;SDS011;17683;53.360;9.736;2023-08-06T06:11:13;5.88;;;4.80;;
30647;SDS011;17683;53.360;9.736;2023-08-06T06:13:39;7.55;;;4.85;;
30647;SDS011;17683;53.360;9.736;2023-08-06T06:16:04;6.50;;;5.00;;
30647;SDS011;17683;53.360;9.736;2023-08-06T06:18:30;7.25;;;4.32;;
30647;SDS011;17683;53.360;9.736;2023-08-06T06:20:56;5.32;;;4.30;;
30647;SDS011;17683;53.360;9.736;2023-08-06T06:23:21;8.25;;;4.90;;
30647;SDS011;17683;53.360;9.736;2023-08-06T06:25:50;6.70;;;5.03;;
30647;SDS011;17683;53.360;9.736;2023-08-06T06:28:17;7.00;;;5.07;;
30647;SDS011;17683;53.360;9.736;2023-08-06T06:30:43;7.05;;;4.43;;
30647;SDS011;17683;53.360;9.736;2023-08-06T06:33:09;7.05;;;4.13;;
30647;SDS011;17683;53.360;9.736;2023-08-06T06:35:34;7.97;;;4.30;;
30647;SDS011;17683;53.360;9.736;2023-08-06T06:38:00;4.60;;;4.20;;
30647;SDS011;17683;53.360;9.736;2023-08-06T06:40:26;6.55;;;4.60;;
30647;SDS011;17683;53.360;9.736;2023-08-06T06:42:51;10.00;;;5.40;;
30647;SDS011;17683;53.360;9.736;2023-08-06T06:45:17;6.95;;;5.00;;
30647;SDS011;17683;53.360;9.736;2023-08-06T06:47:43;6.25;;;4.90;;
30647;SDS011;17683;53.360;9.736;2023-08-06T06:50:09;6.18;;;4.38;;
30647;SDS011;17683;53.360;9.736;2023-08-06T06:52:35;8.55;;;4.80;;
30647;SDS011;17683;53.360;9.736;2023-08-06T06:55:00;5.43;;;4.47;;
30647;SDS011;17683;53.360;9.736;2023-08-06T06:57:26;6.80;;;4.55;;
30647;SDS011;17683;53.360;9.736;2023-08-06T06:59:52;7.90;;;4.65;;
30647;SDS011;17683;53.360;9.736;2023-08-06T07:02:17;5.35;;;4.20;;
30647;SDS011;17683;53.360;9.736;2023-08-06T07:04:43;8.40;;;4.70;;
30647;SDS011;17683;53.360;9.736;2023-08-06T07:07:09;9.30;;;5.85;;
30647;SDS011;17683;53.360;9.736;2023-08-06T07:09:35;7.28;;;5.07;;
30647;SDS011;17683;53.360;9.736;2023-08-06T07:12:01;8.30;;;4.93;;
30647;SDS011;17683;53.360;9.736;2023-08-06T07:14:28;5.22;;;4.72;;
30647;SDS011;17683;53.360;9.736;2023-08-06T07:16:54;7.28;;;5.20;;
30647;SDS011;17683;53.360;9.736;2023-08-06T07:19:20;7.65;;;4.97;;
30647;SDS011;17683;53.360;9.736;2023-08-06T07:21:46;7.55;;;4.32;;
30647;SDS011;17683;53.360;9.736;2023-08-06T07:24:11;9.10;;;5.20;;
30647;SDS011;17683;53.360;9.736;2023-08-06T07:26:37;10.15;;;5.90;;
30647;SDS011;17683;53.360;9.736;2023-08-06T07:29:03;7.55;;;4.93;;
30647;SDS011;17683;53.360;9.736;2023-08-06T07:31:29;5.70;;;5.05;;
30647;SDS011;17683;53.360;9.736;2023-08-06T07:33:54;9.68;;;5.00;;
30647;SDS011;17683;53.360;9.736;2023-08-06T07:36:20;4.90;;;4.15;;
30647;SDS011;17683;53.360;9.736;2023-08-06T07:38:46;7.07;;;4.95;;
30647;SDS011;17683;53.360;9.736;2023-08-06T07:41:13;8.23;;;4.82;;
30647;SDS011;17683;53.360;9.736;2023-08-06T07:43:39;6.80;;;4.50;;
30647;SDS011;17683;53.360;9.736;2023-08-06T07:46:05;9.52;;;5.03;;
30647;SDS011;17683;53.360;9.736;2023-08-06T07:48:30;6.97;;;5.60;;
30647;SDS011;17683;53.360;9.736;2023-08-06T07:50:56;8.00;;;5.50;;
30647;SDS011;17683;53.360;9.736;2023-08-06T07:53:22;6.93;;;5.30;;
30647;SDS011;17683;53.360;9.736;2023-08-06T07:55:51;5.30;;;4.35;;
30647;SDS011;17683;53.360;9.736;2023-08-06T07:58:18;6.68;;;5.32;;
30647;SDS011;17683;53.360;9.736;2023-08-06T08:00:44;9.43;;;5.22;;
30647;SDS011;17683;53.360;9.736;2023-08-06T08:03:11;5.40;;;4.57;;
30647;SDS011;17683;53.360;9.736;2023-08-06T08:05:38;9.45;;;4.85;;
30647;SDS011;17683;53.360;9.736;2023-08-06T08:08:04;7.22;;;4.20;;
30647;SDS011;17683;53.360;9.736;2023-08-06T08:10:30;4.90;;;3.67;;
30647;SDS011;17683;53.360;9.736;2023-08-06T08:12:56;4.68;;;4.28;;
30647;SDS011;17683;53.360;9.736;2023-08-06T08:15:23;6.00;;;4.13;;
30647;SDS011;17683;53.360;9.736;2023-08-06T08:17:51;6.95;;;4.70;;
30647;SDS011;17683;53.360;9.736;2023-08-06T08:20:17;5.13;;;4.53;;
30647;SDS011;17683;53.360;9.736;2023-08-06T08:22:43;5.68;;;3.60;;
30647;SDS011;17683;53.360;9.736;2023-08-06T08:25:09;9.23;;;4.30;;
30647;SDS011;17683;53.360;9.736;2023-08-06T08:27:34;4.13;;;3.72;;
30647;SDS011;17683;53.360;9.736;2023-08-06T08:30:00;7.60;;;4.72;;
30647;SDS011;17683;53.360;9.736;2023-08-06T08:32:26;3.88;;;3.58;;
30647;SDS011;17683;53.360;9.736;2023-08-06T08:34:52;4.10;;;3.80;;
30647;SDS011;17683;53.360;9.736;2023-08-06T08:37:18;5.93;;;3.42;;
30647;SDS011;17683;53.360;9.736;2023-08-06T08:39:44;5.88;;;3.97;;
30647;SDS011;17683;53.360;9.736;2023-08-06T08:42:10;5.80;;;3.88;;
30647;SDS011;17683;53.360;9.736;2023-08-06T08:44:35;4.90;;;3.45;;
30647;SDS011;17683;53.360;9.736;2023-08-06T08:47:05;6.47;;;3.83;;
30647;SDS011;17683;53.360;9.736;2023-08-06T08:49:34;6.05;;;4.28;;
30647;SDS011;17683;53.360;9.736;2023-08-06T08:52:01;4.43;;;3.20;;
30647;SDS011;17683;53.360;9.736;2023-08-06T08:54:31;5.03;;;4.47;;
30647;SDS011;17683;53.360;9.736;2023-08-06T08:56:58;6.90;;;3.92;;
30647;SDS011;17683;53.360;9.736;2023-08-06T08:59:24;4.50;;;3.65;;
30647;SDS011;17683;53.360;9.736;2023-08-06T09:01:50;5.00;;;4.00;;
30647;SDS011;17683;53.360;9.736;2023-08-06T09:04:19;7.10;;;3.85;;
30647;SDS011;17683;53.360;9.736;2023-08-06T09:06:47;6.13;;;4.65;;
30647;SDS011;17683;53.360;9.736;2023-08-06T09:09:17;7.57;;;4.40;;
30647;SDS011;17683;53.360;9.736;2023-08-06T09:11:53;7.80;;;4.30;;
30647;SDS011;17683;53.360;9.736;2023-08-06T09:14:22;6.72;;;3.85;;
30647;SDS011;17683;53.360;9.736;2023-08-06T09:16:48;4.85;;;3.53;;
30647;SDS011;17683;53.360;9.736;2023-08-06T09:19:14;6.82;;;2.92;;
30647;SDS011;17683;53.360;9.736;2023-08-06T09:21:45;4.40;;;3.95;;
30647;SDS011;17683;53.360;9.736;2023-08-06T09:24:15;5.57;;;3.55;;
30647;SDS011;17683;53.360;9.736;2023-08-06T09:26:41;3.50;;;3.20;;
30647;SDS011;17683;53.360;9.736;2023-08-06T09:29:08;3.63;;;3.15;;
30647;SDS011;17683;53.360;9.736;2023-08-06T09:31:42;3.58;;;3.28;;
30647;SDS011;17683;53.360;9.736;2023-08-06T09:34:21;2.95;;;2.63;;
30647;SDS011;17683;53.360;9.736;2023-08-06T09:39:16;4.53;;;2.80;;
30647;SDS011;17683;53.360;9.736;2023-08-06T09:41:43;3.80;;;2.83;;
30647;SDS011;17683;53.360;9.736;2023-08-06T09:44:15;3.03;;;2.75;;
30647;SDS011;17683;53.360;9.736;2023-08-06T09:46:48;4.45;;;3.13;;
30647;SDS011;17683;53.360;9.736;2023-08-06T09:49:15;3.05;;;2.33;;
30647;SDS011;17683;53.360;9.736;2023-08-06T09:51:42;4.95;;;2.78;;
30647;SDS011;17683;53.360;9.736;2023-08-06T09:54:10;3.28;;;2.30;;
30647;SDS011;17683;53.360;9.736;2023-08-06T09:56:38;4.70;;;2.75;;
30647;SDS011;17683;53.360;9.736;2023-08-06T09:59:04;5.35;;;2.42;;
30647;SDS011;17683;53.360;9.736;2023-08-06T10:01:33;5.07;;;2.83;;
30647;SDS011;17683;53.360;9.736;2023-08-06T10:04:00;4.70;;;2.63;;
30647;SDS011;17683;53.360;9.736;2023-08-06T10:06:28;4.75;;;3.22;;
30647;SDS011;17683;53.360;9.736;2023-08-06T10:08:55;4.88;;;2.50;;
30647;SDS011;17683;53.360;9.736;2023-08-06T10:11:21;4.47;;;2.33;;
30647;SDS011;17683;53.360;9.736;2023-08-06T10:13:49;3.85;;;2.60;;
30647;SDS011;17683;53.360;9.736;2023-08-06T10:16:22;4.00;;;2.80;;
30647;SDS011;17683;53.360;9.736;2023-08-06T10:18:48;5.13;;;2.47;;
30647;SDS011;17683;53.360;9.736;2023-08-06T10:21:15;2.60;;;2.40;;
30647;SDS011;17683;53.360;9.736;2023-08-06T10:23:41;2.88;;;2.65;;
30647;SDS011;17683;53.360;9.736;2023-08-06T10:26:07;2.95;;;2.72;;
30647;SDS011;17683;53.360;9.736;2023-08-06T10:28:39;5.40;;;2.85;;
30647;SDS011;17683;53.360;9.736;2023-08-06T10:31:05;5.40;;;2.97;;
30647;SDS011;17683;53.360;9.736;2023-08-06T10:33:46;3.13;;;2.83;;
30647;SDS011;17683;53.360;9.736;2023-08-06T10:36:13;4.80;;;2.85;;
30647;SDS011;17683;53.360;9.736;2023-08-06T10:38:46;6.38;;;3.92;;
30647;SDS011;17683;53.360;9.736;2023-08-06T10:41:22;3.90;;;3.03;;
30647;SDS011;17683;53.360;9.736;2023-08-06T10:43:52;3.60;;;2.95;;
30647;SDS011;17683;53.360;9.736;2023-08-06T10:46:30;4.60;;;3.22;;
30647;SDS011;17683;53.360;9.736;2023-08-06T10:48:55;4.82;;;3.30;;
30647;SDS011;17683;53.360;9.736;2023-08-06T10:51:21;6.15;;;2.92;;
30647;SDS011;17683;53.360;9.736;2023-08-06T10:53:48;6.85;;;3.30;;
30647;SDS011;17683;53.360;9.736;2023-08-06T10:56:19;5.57;;;3.70;;
30647;SDS011;17683;53.360;9.736;2023-08-06T10:58:47;8.52;;;3.58;;
30647;SDS011;17683;53.360;9.736;2023-08-06T11:01:13;9.23;;;4.38;;
30647;SDS011;17683;53.360;9.736;2023-08-06T11:03:41;6.35;;;4.32;;
30647;SDS011;17683;53.360;9.736;2023-08-06T11:06:07;5.88;;;4.13;;
30647;SDS011;17683;53.360;9.736;2023-08-06T11:08:34;8.63;;;4.45;;
30647;SDS011;17683;53.360;9.736;2023-08-06T11:11:11;5.75;;;3.60;;
30647;SDS011;17683;53.360;9.736;2023-08-06T11:13:39;5.40;;;3.60;;
30647;SDS011;17683;53.360;9.736;2023-08-06T11:16:09;6.68;;;3.83;;
30647;SDS011;17683;53.360;9.736;2023-08-06T11:18:35;6.43;;;3.65;;
30647;SDS011;17683;53.360;9.736;2023-08-06T11:21:01;5.65;;;4.05;;
30647;SDS011;17683;53.360;9.736;2023-08-06T11:23:27;4.47;;;3.60;;
30647;SDS011;17683;53.360;9.736;2023-08-06T11:25:54;4.40;;;3.90;;
30647;SDS011;17683;53.360;9.736;2023-08-06T11:28:23;8.95;;;4.35;;
30647;SDS011;17683;53.360;9.736;2023-08-06T11:30:50;6.50;;;3.80;;
30647;SDS011;17683;53.360;9.736;2023-08-06T11:33:20;5.50;;;3.88;;
30647;SDS011;17683;53.360;9.736;2023-08-06T11:35:47;7.50;;;5.15;;
30647;SDS011;17683;53.360;9.736;2023-08-06T11:38:13;6.35;;;4.63;;
30647;SDS011;17683;53.360;9.736;2023-08-06T11:40:39;7.28;;;4.20;;
30647;SDS011;17683;53.360;9.736;2023-08-06T11:43:05;5.07;;;4.30;;
30647;SDS011;17683;53.360;9.736;2023-08-06T11:45:31;8.80;;;4.45;;
30647;SDS011;17683;53.360;9.736;2023-08-06T11:48:00;5.70;;;4.05;;
30647;SDS011;17683;53.360;9.736;2023-08-06T11:50:27;7.32;;;3.72;;
30647;SDS011;17683;53.360;9.736;2023-08-06T11:53:02;6.18;;;3.63;;
30647;SDS011;17683;53.360;9.736;2023-08-06T11:55:28;7.10;;;3.83;;
30647;SDS011;17683;53.360;9.736;2023-08-06T11:57:54;5.10;;;3.40;;
30647;SDS011;17683;53.360;9.736;2023-08-06T12:00:22;4.68;;;3.78;;
30647;SDS011;17683;53.360;9.736;2023-08-06T12:02:49;5.32;;;3.03;;
30647;SDS011;17683;53.360;9.736;2023-08-06T12:07:49;5.68;;;3.08;;
30647;SDS011;17683;53.360;9.736;2023-08-06T12:10:27;7.15;;;3.33;;
30647;SDS011;17683;53.360;9.736;2023-08-06T12:12:54;6.88;;;3.75;;
30647;SDS011;17683;53.360;9.736;2023-08-06T12:15:20;4.68;;;2.80;;
30647;SDS011;17683;53.360;9.736;2023-08-06T12:17:47;3.90;;;3.33;;
30647;SDS011;17683;53.360;9.736;2023-08-06T12:20:12;5.65;;;3.53;;
30647;SDS011;17683;53.360;9.736;2023-08-06T12:22:38;4.47;;;3.10;;
30647;SDS011;17683;53.360;9.736;2023-08-06T12:25:11;3.75;;;3.00;;
30647;SDS011;17683;53.360;9.736;2023-08-06T12:27:38;5.65;;;3.42;;
30647;SDS011;17683;53.360;9.736;2023-08-06T12:30:05;5.25;;;3.25;;
30647;SDS011;17683;53.360;9.736;2023-08-06T12:32:31;4.88;;;3.15;;
30647;SDS011;17683;53.360;9.736;2023-08-06T12:34:57;6.25;;;3.30;;
30647;SDS011;17683;53.360;9.736;2023-08-06T12:37:24;3.67;;;2.50;;
30647;SDS011;17683;53.360;9.736;2023-08-06T12:39:50;3.38;;;2.67;;
30647;SDS011;17683;53.360;9.736;2023-08-06T12:42:16;3.63;;;2.85;;
30647;SDS011;17683;53.360;9.736;2023-08-06T12:44:41;4.03;;;3.00;;
30647;SDS011;17683;53.360;9.736;2023-08-06T12:47:07;4.07;;;3.05;;
30647;SDS011;17683;53.360;9.736;2023-08-06T12:49:33;6.65;;;2.90;;
30647;SDS011;17683;53.360;9.736;2023-08-06T12:51:59;3.03;;;2.50;;
30647;SDS011;17683;53.360;9.736;2023-08-06T12:54:25;4.40;;;2.47;;
30647;SDS011;17683;53.360;9.736;2023-08-06T12:56:51;6.07;;;2.92;;
30647;SDS011;17683;53.360;9.736;2023-08-06T12:59:17;5.85;;;2.78;;
30647;SDS011;17683;53.360;9.736;2023-08-06T13:01:43;3.95;;;2.90;;
30647;SDS011;17683;53.360;9.736;2023-08-06T13:04:10;3.13;;;2.45;;
30647;SDS011;17683;53.360;9.736;2023-08-06T13:06:36;4.95;;;3.00;;
30647;SDS011;17683;53.360;9.736;2023-08-06T13:09:02;10.02;;;3.10;;
30647;SDS011;17683;53.360;9.736;2023-08-06T13:11:29;5.78;;;2.90;;
30647;SDS011;17683;53.360;9.736;2023-08-06T13:13:58;4.07;;;2.47;;
30647;SDS011;17683;53.360;9.736;2023-08-06T13:16:28;4.47;;;2.65;;
30647;SDS011;17683;53.360;9.736;2023-08-06T13:18:54;4.10;;;3.30;;
30647;SDS011;17683;53.360;9.736;2023-08-06T13:21:20;4.13;;;3.10;;
30647;SDS011;17683;53.360;9.736;2023-08-06T13:23:45;4.82;;;3.13;;
30647;SDS011;17683;53.360;9.736;2023-08-06T13:26:12;5.15;;;3.05;;
30647;SDS011;17683;53.360;9.736;2023-08-06T13:28:38;5.13;;;2.70;;
30647;SDS011;17683;53.360;9.736;2023-08-06T13:31:04;5.40;;;3.30;;
30647;SDS011;17683;53.360;9.736;2023-08-06T13:33:30;3.97;;;3.53;;
30647;SDS011;17683;53.360;9.736;2023-08-06T13:35:55;5.28;;;3.53;;
30647;SDS011;17683;53.360;9.736;2023-08-06T13:38:21;4.63;;;3.30;;
30647;SDS011;17683;53.360;9.736;2023-08-06T13:40:47;4.78;;;4.30;;
30647;SDS011;17683;53.360;9.736;2023-08-06T13:43:13;5.97;;;3.80;;
30647;SDS011;17683;53.360;9.736;2023-08-06T13:45:41;11.95;;;4.30;;
30647;SDS011;17683;53.360;9.736;2023-08-06T13:48:06;7.28;;;3.72;;
30647;SDS011;17683;53.360;9.736;2023-08-06T13:50:32;5.43;;;4.28;;
30647;SDS011;17683;53.360;9.736;2023-08-06T13:52:58;4.72;;;4.18;;
30647;SDS011;17683;53.360;9.736;2023-08-06T13:55:23;4.60;;;4.00;;
30647;SDS011;17683;53.360;9.736;2023-08-06T13:57:49;6.22;;;4.13;;
30647;SDS011;17683;53.360;9.736;2023-08-06T14:00:16;10.18;;;4.93;;
30647;SDS011;17683;53.360;9.736;2023-08-06T14:02:41;7.05;;;4.60;;
30647;SDS011;17683;53.360;9.736;2023-08-06T14:05:09;7.32;;;4.75;;
30647;SDS011;17683;53.360;9.736;2023-08-06T14:07:35;5.15;;;4.15;;
30647;SDS011;17683;53.360;9.736;2023-08-06T14:10:00;9.57;;;4.40;;
30647;SDS011;17683;53.360;9.736;2023-08-06T14:12:26;7.10;;;4.93;;
30647;SDS011;17683;53.360;9.736;2023-08-06T14:14:52;7.18;;;4.80;;
30647;SDS011;17683;53.360;9.736;2023-08-06T14:17:17;8.43;;;4.70;;
30647;SDS011;17683;53.360;9.736;2023-08-06T14:19:43;5.97;;;4.88;;
30647;SDS011;17683;53.360;9.736;2023-08-06T14:22:09;7.65;;;5.18;;
30647;SDS011;17683;53.360;9.736;2023-08-06T14:24:34;7.75;;;5.30;;
30647;SDS011;17683;53.360;9.736;2023-08-06T14:27:00;8.40;;;4.97;;
30647;SDS011;17683;53.360;9.736;2023-08-06T14:29:26;6.35;;;5.10;;
30647;SDS011;17683;53.360;9.736;2023-08-06T14:31:51;8.50;;;5.22;;
30647;SDS011;17683;53.360;9.736;2023-08-06T14:34:17;6.30;;;4.93;;
30647;SDS011;17683;53.360;9.736;2023-08-06T14:36:43;7.93;;;4.97;;
30647;SDS011;17683;53.360;9.736;2023-08-06T14:39:08;5.60;;;4.38;;
30647;SDS011;17683;53.360;9.736;2023-08-06T14:41:34;6.32;;;4.95;;
30647;SDS011;17683;53.360;9.736;2023-08-06T14:44:00;4.50;;;4.07;;
30647;SDS011;17683;53.360;9.736;2023-08-06T14:46:25;5.13;;;4.60;;
30647;SDS011;17683;53.360;9.736;2023-08-06T14:48:51;5.95;;;4.55;;
30647;SDS011;17683;53.360;9.736;2023-08-06T14:51:17;5.65;;;3.90;;
30647;SDS011;17683;53.360;9.736;2023-08-06T14:53:45;5.80;;;4.07;;
30647;SDS011;17683;53.360;9.736;2023-08-06T14:56:11;6.32;;;4.50;;
30647;SDS011;17683;53.360;9.736;2023-08-06T14:58:36;5.97;;;4.00;;